Time;durP1;ratioP1;P1;durP2;ratioP2;P2;SDS_P1;SDS_P2;PMS_P1;PMS_P2;Temp;Humidity;BMP_temperature;BMP_pressure;BME280_temperature;BME280_humidity;BME280_pressure;Samples;Min_cycle;Max_cycle;Signal;HPM_P1;HPM_P2
2023/07/09 00:01:50;;;;;;;4.82;4.20;;;16.60;1.00;;;;;;4995609;28;20222;-89
2023/07/09 00:04:18;;;;;;;8.02;4.55;;;16.50;1.00;;;;;;4993431;28;20261;-92
2023/07/09 00:06:47;;;;;;;5.93;4.35;;;16.40;99.90;;;;;;4991532;28;20191;-92
2023/07/09 00:09:16;;;;;;;6.03;4.30;;;16.30;99.90;;;;;;4981985;28;20253;-91
2023/07/09 00:11:43;;;;;;;6.65;4.07;;;16.30;1.00;;;;;;4998741;28;20206;-91
2023/07/09 00:14:11;;;;;;;4.57;3.90;;;16.20;1.00;;;;;;4998305;28;20206;-91
2023/07/09 00:16:39;;;;;;;6.28;4.00;;;16.10;1.00;;;;;;4998919;28;20269;-91
2023/07/09 00:19:13;;;;;;;5.13;4.28;;;16.10;99.90;;;;;;4998891;28;20201;-91
2023/07/09 00:21:41;;;;;;;9.13;4.75;;;16.10;1.00;;;;;;4998342;28;20193;-92
2023/07/09 00:24:10;;;;;;;5.38;4.15;;;16.10;1.00;;;;;;4986881;28;20202;-91
2023/07/09 00:26:40;;;;;;;5.82;4.60;;;16.00;99.90;;;;;;4998544;28;20209;-91
2023/07/09 00:29:09;;;;;;;8.80;4.32;;;15.90;1.00;;;;;;4998537;28;20763;-92
2023/07/09 00:31:38;;;;;;;5.00;4.50;;;15.90;99.90;;;;;;4998291;28;20213;-90
2023/07/09 00:34:05;;;;;;;6.65;4.50;;;15.80;1.00;;;;;;4998466;28;20225;-92
2023/07/09 00:36:33;;;;;;;8.80;4.97;;;15.80;1.00;;;;;;4997932;28;20193;-91
2023/07/09 00:39:04;;;;;;;6.45;4.97;;;15.70;1.00;;;;;;4998399;28;20242;-90
2023/07/09 00:41:34;;;;;;;8.43;4.57;;;15.70;1.00;;;;;;4998691;28;20240;-91
2023/07/09 00:44:24;;;;;;;5.68;4.68;;;15.70;1.00;;;;;;4991801;28;20210;-91
2023/07/09 00:47:17;;;;;;;4.88;4.13;;;15.60;1.00;;;;;;4994981;28;20201;-90
2023/07/09 00:49:46;;;;;;;7.90;4.88;;;15.50;99.90;;;;;;4994215;28;20294;-90
2023/07/09 00:52:24;;;;;;;5.85;4.90;;;15.50;1.00;;;;;;4989932;28;20210;-92
2023/07/09 00:54:53;;;;;;;8.93;4.55;;;15.40;1.00;;;;;;4997877;28;20730;-90
2023/07/09 00:57:25;;;;;;;6.73;4.13;;;15.30;1.00;;;;;;4998522;28;20198;-89
2023/07/09 00:59:59;;;;;;;6.50;4.80;;;15.20;1.00;;;;;;4997880;28;20232;-91
2023/07/09 01:02:27;;;;;;;6.90;4.57;;;15.10;1.00;;;;;;4998588;28;20224;-90
2023/07/09 01:05:01;;;;;;;9.80;4.83;;;15.10;64.30;;;;;;4993992;28;20257;-90
2023/07/09 01:07:28;;;;;;;8.15;4.90;;;15.00;99.90;;;;;;4991130;28;20206;-91
2023/07/09 01:09:55;;;;;;;6.20;4.50;;;14.90;4.70;;;;;;4995245;28;20311;-91
2023/07/09 01:12:24;;;;;;;7.43;5.10;;;14.80;1.00;;;;;;4988777;28;20202;-91
2023/07/09 01:14:53;;;;;;;6.63;4.60;;;14.70;9.80;;;;;;4997411;28;20580;-92
2023/07/09 01:17:21;;;;;;;7.53;4.37;;;14.70;99.90;;;;;;4996818;28;20271;-91
2023/07/09 01:19:51;;;;;;;6.37;4.60;;;14.60;99.90;;;;;;4992706;28;20210;-90
2023/07/09 01:22:21;;;;;;;6.17;4.60;;;14.60;99.90;;;;;;4996509;28;20273;-91
2023/07/09 01:24:55;;;;;;;7.50;4.70;;;14.60;99.90;;;;;;4997521;28;20657;-90
2023/07/09 01:27:26;;;;;;;7.33;4.80;;;14.40;99.90;;;;;;4997682;28;20200;-91
2023/07/09 01:29:54;;;;;;;6.07;4.60;;;14.40;1.00;;;;;;4985983;28;20207;-91
2023/07/09 01:32:22;;;;;;;6.60;4.73;;;14.40;99.90;;;;;;4997539;28;20208;-90
2023/07/09 01:34:55;;;;;;;8.53;5.60;;;14.30;99.90;;;;;;4997407;28;20656;-90
2023/07/09 01:37:26;;;;;;;6.73;5.10;;;14.20;1.00;;;;;;4997502;28;20211;-92
2023/07/09 01:39:54;;;;;;;6.10;5.03;;;14.20;1.00;;;;;;4986093;28;20226;-90
2023/07/09 01:42:23;;;;;;;7.00;4.80;;;14.10;1.00;;;;;;4997054;28;20312;-90
2023/07/09 01:44:51;;;;;;;6.40;4.90;;;14.10;99.90;;;;;;4993239;28;20207;-90
2023/07/09 01:47:18;;;;;;;6.47;5.13;;;14.00;1.00;;;;;;4987316;28;20237;-92
2023/07/09 01:49:46;;;;;;;8.73;5.03;;;14.00;76.30;;;;;;4997583;28;20201;-90
2023/07/09 01:52:16;;;;;;;6.47;4.73;;;13.90;1.00;;;;;;4986891;28;20204;-89
2023/07/09 01:54:49;;;;;;;6.70;5.47;;;13.90;1.00;;;;;;4997060;28;20669;-90
2023/07/09 01:57:22;;;;;;;6.90;5.07;;;13.90;1.00;;;;;;4985484;28;20285;-90
2023/07/09 01:59:51;;;;;;;7.57;5.63;;;13.80;1.00;;;;;;4978036;28;20272;-90
2023/07/09 02:02:19;;;;;;;6.90;5.37;;;13.80;1.00;;;;;;4978490;28;20244;-91
2023/07/09 02:04:50;;;;;;;6.90;5.40;;;13.80;1.00;;;;;;4996915;28;20193;-88
2023/07/09 02:07:19;;;;;;;6.67;5.00;;;13.80;1.00;;;;;;4995670;28;20207;-91
2023/07/09 02:09:47;;;;;;;8.77;5.80;;;13.70;1.00;;;;;;4984359;28;20643;-90
2023/07/09 02:12:16;;;;;;;6.50;5.17;;;13.70;1.00;;;;;;4987523;28;20197;-92
2023/07/09 02:14:44;;;;;;;8.30;5.10;;;13.70;1.00;;;;;;4989844;28;20197;-91
2023/07/09 02:17:12;;;;;;;6.63;5.50;;;13.60;1.00;;;;;;4996185;28;20200;-92
2023/07/09 02:19:40;;;;;;;6.33;5.10;;;13.60;1.00;;;;;;4992478;28;20249;-91
2023/07/09 02:22:08;;;;;;;8.50;5.50;;;;;;;;;;4976843;28;20225;-89
2023/07/09 02:24:35;;;;;;;7.37;5.17;;;13.50;1.00;;;;;;4996216;28;20203;-90
2023/07/09 02:27:06;;;;;;;7.27;5.40;;;13.50;11.30;;;;;;4994552;28;20732;-90
2023/07/09 02:29:34;;;;;;;10.37;6.20;;;13.50;99.90;;;;;;4976855;28;20200;-90
2023/07/09 02:32:02;;;;;;;7.03;5.60;;;13.40;99.90;;;;;;4994065;28;20648;-92
2023/07/09 02:34:31;;;;;;;7.53;5.70;;;13.40;99.90;;;;;;4986096;28;20196;-90
2023/07/09 02:36:59;;;;;;;10.20;6.23;;;13.40;99.90;;;;;;4996432;28;20261;-89
2023/07/09 02:39:27;;;;;;;6.93;5.73;;;13.40;1.00;;;;;;4994803;28;20202;-91
2023/07/09 02:41:54;;;;;;;6.87;5.20;;;13.40;99.90;;;;;;4995153;28;20203;-90
2023/07/09 02:44:22;;;;;;;7.80;5.53;;;13.30;99.90;;;;;;4996164;28;20630;-91
2023/07/09 02:46:49;;;;;;;7.63;5.90;;;13.30;1.00;;;;;;4996291;28;20269;-90
2023/07/09 02:49:16;;;;;;;6.77;5.60;;;13.30;1.00;;;;;;4995801;28;20205;-90
2023/07/09 02:51:43;;;;;;;7.17;5.47;;;13.30;1.00;;;;;;4985608;28;20200;-90
2023/07/09 02:54:10;;;;;;;8.77;5.17;;;13.30;1.00;;;;;;4992377;28;20203;-92
2023/07/09 02:56:37;;;;;;;7.97;5.90;;;13.30;16.30;;;;;;4996374;28;20263;-90
2023/07/09 02:59:05;;;;;;;8.00;5.93;;;13.20;1.00;;;;;;4996514;28;20622;-90
2023/07/09 03:01:34;;;;;;;8.90;6.27;;;13.20;1.00;;;;;;4995641;28;20214;-89
2023/07/09 03:04:01;;;;;;;7.67;5.67;;;13.20;1.00;;;;;;4995532;28;20228;-91
2023/07/09 03:06:29;;;;;;;8.60;5.90;;;13.20;99.90;;;;;;4995625;28;20336;-89
2023/07/09 03:08:56;;;;;;;8.83;5.83;;;13.30;99.90;;;;;;4995807;28;20207;-89
2023/07/09 03:11:23;;;;;;;9.13;5.77;;;13.30;99.90;;;;;;4995742;28;20348;-89
2023/07/09 03:13:50;;;;;;;7.93;6.10;;;13.30;99.90;;;;;;4985343;28;20254;-89
2023/07/09 03:16:18;;;;;;;9.13;5.90;;;13.30;99.90;;;;;;4995598;28;20204;-89
2023/07/09 03:18:47;;;;;;;7.80;6.10;;;13.40;99.90;;;;;;4995700;28;20204;-91
2023/07/09 03:21:14;;;;;;;7.57;6.00;;;13.40;99.90;;;;;;4995722;28;20205;-91
2023/07/09 03:23:42;;;;;;;8.03;5.77;;;13.40;1.00;;;;;;4996087;28;20223;-89
2023/07/09 03:26:08;;;;;;;9.63;6.37;;;13.40;1.00;;;;;;4995538;28;20210;-90
2023/07/09 03:28:35;;;;;;;8.43;6.23;;;13.50;1.00;;;;;;4982017;28;20197;-90
2023/07/09 03:31:02;;;;;;;8.13;6.00;;;13.50;99.90;;;;;;4985289;28;20208;-89
2023/07/09 03:33:29;;;;;;;8.10;5.67;;;13.60;1.00;;;;;;4995441;28;20254;-91
2023/07/09 03:35:58;;;;;;;8.17;5.73;;;13.60;1.00;;;;;;4995426;28;20637;-89
2023/07/09 03:38:25;;;;;;;8.80;6.03;;;13.70;1.00;;;;;;4995162;28;20255;-90
2023/07/09 03:40:52;;;;;;;8.30;5.80;;;13.70;99.90;;;;;;4995319;28;20198;-89
2023/07/09 03:43:19;;;;;;;7.17;5.80;;;13.70;1.00;;;;;;4984724;28;20230;-91
2023/07/09 03:45:47;;;;;;;6.93;6.00;;;13.80;1.00;;;;;;4995945;28;20251;-89
2023/07/09 03:48:16;;;;;;;9.77;5.87;;;13.80;1.00;;;;;;4995750;28;20204;-90
2023/07/09 03:50:44;;;;;;;7.50;5.73;;;13.80;1.00;;;;;;4994818;28;20189;-92
2023/07/09 03:53:13;;;;;;;9.83;6.00;;;14.00;1.00;;;;;;4995556;28;20201;-91
2023/07/09 03:55:41;;;;;;;9.30;5.80;;;14.00;99.90;;;;;;4995317;28;20229;-91
2023/07/09 03:58:08;;;;;;;8.83;6.20;;;14.20;1.00;;;;;;4995746;28;20248;-89
2023/07/09 04:00:35;;;;;;;8.50;6.20;;;14.30;1.00;;;;;;4995353;28;20192;-92
2023/07/09 04:03:02;;;;;;;8.00;5.70;;;14.50;1.00;;;;;;4995720;28;20221;-89
2023/07/09 04:05:29;;;;;;;6.90;5.17;;;15.10;99.90;;;;;;4995297;28;20197;-92
2023/07/09 04:07:56;;;;;;;8.93;5.78;;;15.90;1.00;;;;;;4994944;28;20209;-92
2023/07/09 04:10:25;;;;;;;6.63;5.05;;;16.60;93.10;;;;;;4994938;28;20284;-92
2023/07/09 04:12:52;;;;;;;8.55;5.43;;;17.40;99.90;;;;;;4987285;28;20261;-91
2023/07/09 04:15:19;;;;;;;6.70;5.30;;;18.10;99.90;;;;;;4978601;28;20202;-91
2023/07/09 04:17:46;;;;;;;7.47;5.20;;;18.50;99.90;;;;;;4994262;28;20195;-91
2023/07/09 04:20:13;;;;;;;5.93;4.43;;;18.90;1.00;;;;;;4976673;28;20199;-91
2023/07/09 04:22:41;;;;;;;10.05;5.15;;;19.30;1.00;;;;;;4976683;28;20208;-93
2023/07/09 04:25:11;;;;;;;8.63;4.68;;;19.60;1.00;;;;;;4994686;28;20249;-90
2023/07/09 04:27:52;;;;;;;6.07;4.70;;;19.70;99.90;;;;;;5004934;28;20191;-96
2023/07/09 04:33:09;;;;;;;5.82;4.82;;;20.10;99.90;;;;;;5018241;28;20178;-95
2023/07/09 04:35:53;;;;;;;9.02;4.65;;;20.40;99.90;;;;;;5018452;28;20163;-96
2023/07/09 04:46:33;;;;;;;5.38;4.13;;;21.50;1.00;;;;;;5329281;22;20213;-94
2023/07/09 04:54:35;;;;;;;7.13;3.80;;;22.70;1.00;;;;;;5958330;23;20233;-94
2023/07/09 04:57:05;;;;;;;4.18;3.65;;;23.30;1.00;;;;;;5101093;28;20255;-96
2023/07/09 04:59:41;;;;;;;5.63;3.72;;;23.60;1.00;;;;;;5079264;23;20237;-96
2023/07/09 05:02:16;;;;;;;5.75;3.70;;;23.90;1.00;;;;;;5040964;28;20245;-96
2023/07/09 05:05:02;;;;;;;3.63;3.28;;;24.20;1.00;;;;;;5040314;28;20182;-96
2023/07/09 05:08:17;;;;;;;4.63;3.58;;;24.40;1.00;;;;;;5040666;28;20225;-96
2023/07/09 05:13:13;;;;;;;6.38;3.30;;;23.90;99.90;;;;;;4997768;23;20649;-92
2023/07/09 05:15:42;;;;;;;4.57;3.10;;;23.40;99.90;;;;;;5008560;28;20248;-91
2023/07/09 05:18:10;;;;;;;5.57;3.60;;;23.00;99.90;;;;;;5016739;28;20236;-90
2023/07/09 05:20:38;;;;;;;5.40;3.60;;;22.50;99.90;;;;;;5017520;28;20241;-90
2023/07/09 05:23:05;;;;;;;5.82;3.50;;;22.10;99.90;;;;;;5017096;28;20578;-89
2023/07/09 05:25:32;;;;;;;5.32;3.45;;;21.90;99.90;;;;;;5017052;28;20202;-89
2023/07/09 05:27:59;;;;;;;4.75;3.58;;;21.70;1.00;;;;;;5016521;28;20257;-90
2023/07/09 05:30:27;;;;;;;4.95;3.28;;;21.50;1.00;;;;;;5016108;28;20203;-90
2023/07/09 05:32:57;;;;;;;4.45;3.03;;;21.30;1.00;;;;;;5016870;28;20230;-94
2023/07/09 05:35:26;;;;;;;4.88;3.42;;;21.20;1.00;;;;;;5005741;28;20214;-92
2023/07/09 05:37:54;;;;;;;3.40;2.90;;;21.10;1.00;;;;;;5011386;28;20290;-92
2023/07/09 05:40:22;;;;;;;4.80;3.35;;;21.00;1.00;;;;;;5007880;28;20281;-93
2023/07/09 05:42:49;;;;;;;5.22;3.10;;;21.00;1.00;;;;;;5016434;28;20233;-92
2023/07/09 05:45:16;;;;;;;4.60;3.25;;;21.00;1.00;;;;;;5013940;28;20252;-93
2023/07/09 05:47:43;;;;;;;5.10;3.00;;;21.00;1.00;;;;;;4997144;28;20545;-91
2023/07/09 05:50:10;;;;;;;7.10;3.35;;;21.00;1.00;;;;;;5004076;28;20206;-92
2023/07/09 05:52:39;;;;;;;3.72;3.20;;;21.00;1.00;;;;;;5016151;28;20203;-93
2023/07/09 05:55:07;;;;;;;7.05;3.00;;;21.00;1.00;;;;;;5015946;28;20308;-91
2023/07/09 05:57:34;;;;;;;5.38;3.00;;;21.00;1.00;;;;;;5015800;28;20195;-92
2023/07/09 06:00:01;;;;;;;4.60;3.17;;;21.00;1.00;;;;;;5015637;28;20202;-92
2023/07/09 06:02:28;;;;;;;5.85;3.30;;;21.10;1.00;;;;;;5016201;28;20202;-91
2023/07/09 06:04:54;;;;;;;4.32;3.15;;;21.20;1.00;;;;;;5005450;28;20195;-92
2023/07/09 06:07:23;;;;;;;4.35;3.15;;;21.20;1.00;;;;;;5016127;28;20202;-91
2023/07/09 06:09:52;;;;;;;4.57;2.92;;;21.20;1.00;;;;;;5008656;28;20228;-92
2023/07/09 06:12:19;;;;;;;3.53;2.90;;;21.30;1.00;;;;;;4999538;28;20742;-91
2023/07/09 06:14:46;;;;;;;3.38;2.88;;;21.40;1.00;;;;;;5015602;28;20222;-91
2023/07/09 06:17:13;;;;;;;4.65;3.15;;;21.40;1.00;;;;;;5007747;28;20203;-91
2023/07/09 06:19:40;;;;;;;3.58;3.10;;;21.50;1.00;;;;;;5011695;28;20206;-93
2023/07/09 06:22:07;;;;;;;4.15;3.20;;;21.50;1.00;;;;;;5015414;28;20198;-93
2023/07/09 06:24:34;;;;;;;5.78;3.15;;;21.60;1.00;;;;;;5010545;28;20199;-91
2023/07/09 06:27:03;;;;;;;3.40;3.10;;;21.70;1.00;;;;;;5014449;28;20280;-91
2023/07/09 06:29:30;;;;;;;6.65;3.28;;;21.80;1.00;;;;;;5015079;28;20268;-93
2023/07/09 06:31:57;;;;;;;6.07;3.50;;;22.00;1.00;;;;;;5014973;28;20199;-91
2023/07/09 06:34:24;;;;;;;5.07;3.40;;;22.10;1.00;;;;;;5015429;28;20214;-91
2023/07/09 06:36:51;;;;;;;3.92;3.25;;;22.30;1.00;;;;;;5015320;28;20260;-90
2023/07/09 06:39:20;;;;;;;4.43;3.05;;;22.40;1.00;;;;;;5015238;28;20202;-90
2023/07/09 06:41:47;;;;;;;3.78;3.28;;;22.50;1.00;;;;;;5002796;28;20213;-91
2023/07/09 06:44:15;;;;;;;5.40;3.13;;;22.60;1.00;;;;;;5003298;28;20283;-91
2023/07/09 06:46:42;;;;;;;6.07;3.40;;;22.70;1.00;;;;;;5014793;28;20225;-92
2023/07/09 06:49:09;;;;;;;6.05;3.35;;;22.80;1.00;;;;;;5015477;28;20210;-92
2023/07/09 06:51:36;;;;;;;5.32;3.25;;;22.90;1.00;;;;;;5015022;28;20256;-92
2023/07/09 06:54:04;;;;;;;6.55;3.50;;;23.00;1.00;;;;;;5014482;28;20226;-91
2023/07/09 06:56:31;;;;;;;5.25;3.53;;;23.10;1.00;;;;;;5005215;28;20206;-91
2023/07/09 06:58:58;;;;;;;4.18;3.20;;;23.20;99.90;;;;;;5014837;28;20606;-92
2023/07/09 07:01:27;;;;;;;4.90;3.20;;;23.30;99.90;;;;;;5015000;28;20249;-92
2023/07/09 07:03:54;;;;;;;5.88;3.40;;;23.30;99.90;;;;;;5014983;28;20547;-89
2023/07/09 07:06:21;;;;;;;3.67;2.95;;;23.40;99.90;;;;;;5007956;28;20198;-92
2023/07/09 07:08:47;;;;;;;5.22;3.20;;;23.50;99.90;;;;;;5014271;28;20252;-89
2023/07/09 07:11:14;;;;;;;3.50;3.20;;;23.50;99.90;;;;;;5014176;28;20793;-89
2023/07/09 07:13:42;;;;;;;11.55;3.78;;;23.60;99.90;;;;;;5014271;28;20552;-93
2023/07/09 07:16:11;;;;;;;4.88;3.20;;;23.70;99.90;;;;;;5014370;28;20252;-90
2023/07/09 07:18:40;;;;;;;5.40;3.40;;;23.80;99.90;;;;;;5006941;28;20250;-91
2023/07/09 07:21:07;;;;;;;3.90;3.30;;;23.80;99.90;;;;;;5009969;28;20240;-90
2023/07/09 07:23:34;;;;;;;3.42;3.10;;;23.80;99.90;;;;;;5004391;28;20202;-90
2023/07/09 07:26:01;;;;;;;3.75;2.80;;;23.90;99.90;;;;;;5010969;28;20248;-90
2023/07/09 07:28:28;;;;;;;3.40;3.10;;;24.00;99.90;;;;;;5012964;28;20194;-89
2023/07/09 07:31:02;;;;;;;5.22;3.03;;;24.10;99.90;;;;;;4994092;28;20256;-91
2023/07/09 07:33:29;;;;;;;3.40;3.10;;;24.30;99.90;;;;;;5009990;28;20609;-91
2023/07/09 07:35:58;;;;;;;4.05;3.60;;;24.40;99.90;;;;;;5014174;28;20230;-92
2023/07/09 07:38:25;;;;;;;5.35;3.45;;;24.50;99.90;;;;;;5003809;28;20256;-89
2023/07/09 07:40:52;;;;;;;4.53;2.85;;;24.60;99.90;;;;;;5012240;28;20201;-91
2023/07/09 07:43:19;;;;;;;5.85;3.20;;;24.70;99.90;;;;;;5013514;28;20229;-90
2023/07/09 07:45:46;;;;;;;3.33;3.03;;;24.80;99.90;;;;;;5003425;28;20183;-90
2023/07/09 07:48:13;;;;;;;3.72;2.95;;;24.80;99.90;;;;;;5007618;28;20256;-92
2023/07/09 07:50:40;;;;;;;5.05;3.03;;;24.80;99.90;;;;;;5007415;28;20198;-92
2023/07/09 07:53:09;;;;;;;3.63;2.50;;;24.90;99.90;;;;;;5013545;28;20645;-90
2023/07/09 07:55:37;;;;;;;3.38;2.50;;;25.00;99.90;;;;;;5012154;28;20209;-92
2023/07/09 07:58:04;;;;;;;3.58;2.60;;;25.00;99.90;;;;;;5003445;28;20194;-89
2023/07/09 08:00:32;;;;;;;3.90;2.35;;;25.00;99.90;;;;;;5010850;28;20606;-89
2023/07/09 08:02:59;;;;;;;3.53;2.47;;;25.00;99.90;;;;;;5012362;28;20257;-90
2023/07/09 08:05:26;;;;;;;3.40;2.40;;;25.00;99.90;;;;;;5009745;28;20198;-89
2023/07/09 08:07:53;;;;;;;3.22;2.28;;;25.00;99.90;;;;;;5013937;28;20209;-91
2023/07/09 08:10:22;;;;;;;3.20;2.50;;;25.00;99.90;;;;;;5013614;28;20226;-90
2023/07/09 08:12:49;;;;;;;3.40;2.60;;;25.10;99.90;;;;;;5013407;28;20280;-91
2023/07/09 08:15:17;;;;;;;3.53;2.20;;;25.20;99.90;;;;;;5012270;28;20280;-92
2023/07/09 08:17:44;;;;;;;2.75;2.40;;;25.30;99.90;;;;;;5031300;28;20178;-95
2023/07/09 08:20:12;;;;;;;4.53;2.25;;;25.30;99.90;;;;;;5025739;28;20205;-94
2023/07/09 08:22:39;;;;;;;3.70;2.40;;;25.40;99.90;;;;;;5022004;28;20572;-95
2023/07/09 08:25:08;;;;;;;3.20;2.42;;;25.40;99.90;;;;;;5023350;28;20195;-92
2023/07/09 08:27:37;;;;;;;2.97;2.60;;;25.50;99.90;;;;;;5005163;28;20209;-92
2023/07/09 08:30:06;;;;;;;4.03;2.30;;;25.50;99.90;;;;;;5006407;28;20202;-93
2023/07/09 08:32:33;;;;;;;2.65;2.40;;;25.50;99.90;;;;;;5014469;28;20278;-95
2023/07/09 08:35:01;;;;;;;2.88;2.40;;;25.60;99.90;;;;;;5012932;28;20301;-94
2023/07/09 08:37:28;;;;;;;4.40;2.47;;;25.70;99.90;;;;;;5015471;28;20860;-93
2023/07/09 08:39:55;;;;;;;5.63;2.70;;;25.80;99.90;;;;;;5016648;28;20273;-94
2023/07/09 08:42:27;;;;;;;2.40;2.10;;;25.80;99.90;;;;;;5017483;28;20198;-94
2023/07/09 08:45:13;;;;;;;3.67;2.20;;;25.90;99.90;;;;;;5017732;28;20245;-94
2023/07/09 08:47:48;;;;;;;3.42;2.38;;;26.10;99.90;;;;;;5015456;28;20260;-94
2023/07/09 08:50:18;;;;;;;2.30;2.10;;;26.30;99.90;;;;;;5015091;28;20244;-95
2023/07/09 08:52:48;;;;;;;4.55;2.30;;;26.40;99.90;;;;;;5016270;28;22852;-94
2023/07/09 08:55:17;;;;;;;3.08;2.60;;;26.40;99.90;;;;;;5007458;28;20210;-91
2023/07/09 08:57:47;;;;;;;17.48;8.52;;;26.40;99.90;;;;;;5017158;28;20194;-94
2023/07/09 09:00:19;;;;;;;6.68;3.08;;;26.40;99.90;;;;;;5017094;28;20218;-94
2023/07/09 09:02:51;;;;;;;4.82;2.40;;;26.40;99.90;;;;;;5007114;28;20250;-93
2023/07/09 09:05:21;;;;;;;4.72;3.45;;;26.40;99.90;;;;;;5015962;28;20277;-94
2023/07/09 09:07:53;;;;;;;4.65;2.58;;;26.40;99.90;;;;;;5017585;28;20206;-94
2023/07/09 09:10:29;;;;;;;2.88;2.20;;;26.50;99.90;;;;;;5017711;28;20568;-93
2023/07/09 09:13:10;;;;;;;3.35;2.30;;;26.60;99.90;;;;;;5009754;28;20277;-93
2023/07/09 09:15:41;;;;;;;5.43;3.17;;;26.80;99.90;;;;;;5016416;28;20249;-94
2023/07/09 09:18:20;;;;;;;2.90;2.60;;;26.90;99.90;;;;;;5014498;28;20198;-93
2023/07/09 09:20:52;;;;;;;4.32;2.40;;;27.00;99.90;;;;;;5008657;28;20191;-94
2023/07/09 09:23:19;;;;;;;2.92;2.25;;;27.10;99.90;;;;;;5011567;28;20195;-93
2023/07/09 09:25:52;;;;;;;4.40;2.08;;;27.20;99.90;;;;;;5016772;28;20739;-94
2023/07/09 09:28:19;;;;;;;3.20;2.13;;;27.10;99.90;;;;;;5017125;28;20194;-93
2023/07/09 09:30:48;;;;;;;3.08;2.17;;;27.10;99.90;;;;;;5016615;28;20219;-93
2023/07/09 09:33:18;;;;;;;2.42;2.10;;;27.10;99.90;;;;;;5015704;28;20256;-92
2023/07/09 09:35:47;;;;;;;3.53;2.60;;;27.10;99.90;;;;;;5015677;28;20222;-93
2023/07/09 09:38:18;;;;;;;3.50;2.35;;;27.20;99.90;;;;;;5008292;28;20207;-92
2023/07/09 09:40:45;;;;;;;2.67;2.17;;;27.30;99.90;;;;;;5016002;28;20203;-93
2023/07/09 09:43:15;;;;;;;2.65;2.00;;;27.30;99.90;;;;;;5016381;28;20257;-93
2023/07/09 09:45:44;;;;;;;2.28;2.08;;;27.30;99.90;;;;;;5013577;28;20257;-93
2023/07/09 09:48:16;;;;;;;4.63;2.22;;;27.30;99.90;;;;;;5016792;28;20201;-94
2023/07/09 09:50:45;;;;;;;3.70;2.08;;;27.40;99.90;;;;;;5016479;28;20260;-93
2023/07/09 09:53:20;;;;;;;2.15;1.80;;;27.40;99.90;;;;;;5015531;28;20198;-94
2023/07/09 09:55:48;;;;;;;3.50;2.10;;;27.60;99.90;;;;;;5013136;28;20213;-93
2023/07/09 09:58:17;;;;;;;2.45;2.00;;;27.60;99.90;;;;;;5011962;28;20198;-94
2023/07/09 10:00:49;;;;;;;2.90;1.90;;;27.60;99.90;;;;;;5015667;28;20202;-94
2023/07/09 10:03:18;;;;;;;2.22;1.90;;;27.70;99.90;;;;;;5016178;28;20290;-94
2023/07/09 10:05:49;;;;;;;2.78;2.28;;;27.80;99.90;;;;;;5010647;28;20669;-94
2023/07/09 10:08:26;;;;;;;2.05;1.85;;;27.80;99.90;;;;;;5016694;28;20322;-93
2023/07/09 10:10:59;;;;;;;4.47;2.33;;;27.80;99.90;;;;;;5011712;28;20265;-93
2023/07/09 10:13:31;;;;;;;2.45;2.05;;;27.80;99.70;;;;;;5003310;28;20249;-93
2023/07/09 10:16:06;;;;;;;2.10;1.90;;;27.90;99.90;;;;;;5012504;28;20207;-92
2023/07/09 10:18:54;;;;;;;2.55;2.28;;;27.90;99.60;;;;;;5009001;28;20202;-92
2023/07/09 10:21:31;;;;;;;4.28;1.98;;;27.90;99.10;;;;;;5010192;28;20206;-92
2023/07/09 10:24:12;;;;;;;4.47;2.05;;;28.00;98.40;;;;;;5012905;28;20288;-92
2023/07/09 10:26:46;;;;;;;3.80;2.20;;;28.10;98.50;;;;;;4997804;28;20199;-92
2023/07/09 10:29:34;;;;;;;2.78;2.22;;;28.10;98.00;;;;;;5015218;28;20198;-92
2023/07/09 10:32:12;;;;;;;2.10;1.80;;;28.20;98.40;;;;;;5006583;28;20199;-93
2023/07/09 10:34:49;;;;;;;2.85;2.13;;;28.20;96.30;;;;;;5007510;28;20256;-93
2023/07/09 10:37:40;;;;;;;2.67;2.10;;;28.20;95.40;;;;;;5005444;28;20615;-93
2023/07/09 10:40:12;;;;;;;2.45;1.92;;;28.20;94.50;;;;;;5011388;28;20225;-92
2023/07/09 10:42:45;;;;;;;3.13;2.08;;;28.30;93.90;;;;;;5000943;28;20197;-92
2023/07/09 10:45:15;;;;;;;3.20;2.03;;;28.30;95.00;;;;;;5002834;28;20199;-93
2023/07/09 10:47:45;;;;;;;4.03;2.08;;;28.40;95.00;;;;;;5011643;28;20241;-91
2023/07/09 10:50:25;;;;;;;4.10;2.00;;;28.50;92.90;;;;;;5014628;28;20257;-91
2023/07/09 10:52:58;;;;;;;3.42;1.90;;;28.50;93.30;;;;;;5012277;28;20198;-94
2023/07/09 10:55:31;;;;;;;3.28;1.90;;;28.50;91.90;;;;;;5014775;28;20230;-95
2023/07/09 10:58:01;;;;;;;2.20;2.00;;;28.60;92.00;;;;;;5010717;28;20198;-95
2023/07/09 11:00:36;;;;;;;1.95;1.75;;;28.60;91.70;;;;;;5014104;28;20194;-95
2023/07/09 11:03:11;;;;;;;2.67;2.00;;;28.60;90.20;;;;;;5014086;28;20201;-94
2023/07/09 11:05:40;;;;;;;2.60;1.80;;;28.70;91.20;;;;;;5013827;28;20202;-94
2023/07/09 11:08:12;;;;;;;3.08;1.90;;;28.80;91.80;;;;;;5013865;28;20251;-95
2023/07/09 11:10:44;;;;;;;1.83;1.60;;;29.00;92.00;;;;;;5012018;28;20236;-94
2023/07/09 11:13:14;;;;;;;2.40;2.20;;;29.10;88.10;;;;;;5014353;28;20261;-94
2023/07/09 11:15:44;;;;;;;2.28;2.00;;;29.10;87.50;;;;;;5014472;28;20210;-94
2023/07/09 11:18:14;;;;;;;4.38;2.03;;;29.00;84.90;;;;;;4999708;28;20207;-94
2023/07/09 11:20:46;;;;;;;3.55;2.00;;;29.00;84.70;;;;;;4994955;28;20203;-94
2023/07/09 11:23:21;;;;;;;3.78;2.05;;;29.10;84.20;;;;;;5012662;28;20210;-95
2023/07/09 11:25:50;;;;;;;2.05;1.85;;;29.10;82.60;;;;;;5013886;28;20252;-94
2023/07/09 11:28:17;;;;;;;2.40;1.88;;;29.30;80.70;;;;;;5012751;28;20684;-94
2023/07/09 11:30:49;;;;;;;2.28;1.88;;;29.30;79.50;;;;;;5013888;28;20256;-95
2023/07/09 11:33:18;;;;;;;3.17;2.05;;;29.40;79.50;;;;;;5013748;28;20271;-96
2023/07/09 11:35:49;;;;;;;2.55;2.00;;;29.60;83.20;;;;;;5013885;28;20256;-95
2023/07/09 11:38:22;;;;;;;3.95;1.70;;;29.70;80.20;;;;;;5014197;28;20205;-95
2023/07/09 11:40:51;;;;;;;2.00;1.80;;;29.70;78.30;;;;;;5013527;28;20198;-94
2023/07/09 11:43:29;;;;;;;3.22;2.03;;;29.80;77.60;;;;;;5010166;28;20232;-95
2023/07/09 11:46:03;;;;;;;2.50;1.80;;;29.70;80.30;;;;;;5001970;28;20652;-95
2023/07/09 11:48:35;;;;;;;4.43;2.10;;;29.80;78.50;;;;;;5014320;28;20190;-94
2023/07/09 11:51:09;;;;;;;2.83;2.20;;;29.90;75.00;;;;;;5014583;28;20198;-95
2023/07/09 11:53:42;;;;;;;3.88;2.17;;;30.00;74.20;;;;;;5005345;28;20645;-95
2023/07/09 11:56:10;;;;;;;2.53;2.15;;;30.10;73.20;;;;;;5014330;28;20691;-95
2023/07/09 11:58:37;;;;;;;2.45;1.85;;;30.10;70.50;;;;;;5015920;28;20276;-95
2023/07/09 12:01:14;;;;;;;4.15;2.33;;;30.10;69.50;;;;;;5018106;28;20197;-95
2023/07/09 12:03:45;;;;;;;3.63;2.13;;;30.10;73.00;;;;;;5012539;28;20198;-95
2023/07/09 12:06:20;;;;;;;2.45;1.90;;;30.20;67.90;;;;;;5015191;28;20190;-96
2023/07/09 12:08:47;;;;;;;3.40;2.05;;;30.20;67.60;;;;;;5008990;28;20288;-95
2023/07/09 12:11:23;;;;;;;3.80;2.00;;;30.20;60.60;;;;;;5016400;28;20252;-96
2023/07/09 12:13:51;;;;;;;7.22;2.35;;;30.20;58.80;;;;;;5018767;28;20208;-96
2023/07/09 12:16:26;;;;;;;2.03;1.60;;;30.20;67.50;;;;;;5018359;28;20225;-94
2023/07/09 12:18:54;;;;;;;2.35;1.80;;;30.20;59.50;;;;;;5009948;28;20209;-95
2023/07/09 12:21:24;;;;;;;3.50;1.95;;;30.20;59.00;;;;;;5018758;28;20205;-95
2023/07/09 12:23:51;;;;;;;2.53;1.70;;;30.20;54.80;;;;;;5018754;28;20194;-95
2023/07/09 12:26:20;;;;;;;2.15;1.67;;;30.20;52.20;;;;;;5010915;28;20199;-94
2023/07/09 12:28:51;;;;;;;2.90;1.80;;;30.10;56.60;;;;;;5013218;28;20206;-95
2023/07/09 12:31:18;;;;;;;2.08;1.88;;;30.10;55.40;;;;;;5011606;28;20203;-96
2023/07/09 12:33:50;;;;;;;2.20;1.65;;;30.20;82.40;;;;;;5017366;28;20293;-94
2023/07/09 12:36:19;;;;;;;1.98;1.67;;;30.20;54.90;;;;;;5017297;28;20213;-95
2023/07/09 12:38:50;;;;;;;2.75;1.90;;;30.30;58.30;;;;;;5017716;28;20229;-94
2023/07/09 12:41:21;;;;;;;2.08;1.80;;;30.30;51.60;;;;;;5017552;28;20286;-95
2023/07/09 12:43:49;;;;;;;3.95;2.10;;;30.30;53.30;;;;;;5017771;28;20206;-96
2023/07/09 12:46:17;;;;;;;3.15;1.80;;;30.40;52.80;;;;;;5018197;28;20209;-94
2023/07/09 12:48:47;;;;;;;2.25;1.83;;;30.40;50.00;;;;;;5012518;28;20195;-96
2023/07/09 12:51:19;;;;;;;2.00;1.70;;;30.30;51.40;;;;;;5013453;28;20256;-94
2023/07/09 12:53:48;;;;;;;3.47;1.80;;;30.30;48.10;;;;;;5017196;28;20210;-95
2023/07/09 12:56:17;;;;;;;1.75;1.50;;;30.30;46.50;;;;;;5017308;28;20272;-94
2023/07/09 12:58:45;;;;;;;2.88;1.90;;;30.30;45.20;;;;;;5016951;28;20298;-94
2023/07/09 13:01:16;;;;;;;2.10;1.90;;;30.40;44.00;;;;;;5016818;28;20285;-94
2023/07/09 13:03:53;;;;;;;2.35;1.90;;;30.40;46.50;;;;;;5016700;28;20195;-95
2023/07/09 13:06:28;;;;;;;2.60;1.77;;;30.60;48.90;;;;;;5011943;28;20190;-95
2023/07/09 13:09:00;;;;;;;4.30;1.80;;;30.70;52.00;;;;;;5016727;28;20198;-95
2023/07/09 13:11:33;;;;;;;2.33;1.52;;;30.80;45.30;;;;;;5016248;28;20253;-95
2023/07/09 13:14:04;;;;;;;2.85;1.77;;;30.80;42.90;;;;;;5012368;28;20199;-94
2023/07/09 13:16:38;;;;;;;2.10;1.73;;;30.80;39.70;;;;;;5006640;28;20210;-96
2023/07/09 13:19:05;;;;;;;2.58;1.60;;;30.80;40.70;;;;;;5008857;28;20214;-96
2023/07/09 13:21:32;;;;;;;1.83;1.50;;;30.80;40.10;;;;;;5016836;28;20577;-94
2023/07/09 13:24:01;;;;;;;2.05;1.85;;;30.80;34.20;;;;;;5015775;28;20278;-94